Time;durP1;ratioP1;P1;durP2;ratioP2;P2;SDS_P1;SDS_P2;PMS_P1;PMS_P2;Temp;Humidity;BMP_temperature;BMP_pressure;BME280_temperature;BME280_humidity;BME280_pressure;Samples;Min_cycle;Max_cycle;Signal;HPM_P1;HPM_P2
2024/04/05 00:01:08;;;;;;;1.50;1.10;;;12.00;98.20;;;;;;4924167;29;20980;-83
2024/04/05 00:03:37;;;;;;;1.50;1.20;;;12.00;98.20;;;;;;4928852;29;20547;-81
2024/04/05 00:06:04;;;;;;;1.50;1.10;;;12.00;98.20;;;;;;4921450;29;20563;-83
2024/04/05 00:08:33;;;;;;;1.50;1.00;;;12.00;98.20;;;;;;4928841;29;20745;-84
2024/04/05 00:11:00;;;;;;;1.50;1.10;;;12.00;98.20;;;;;;4925237;29;20475;-82
2024/04/05 00:13:25;;;;;;;1.50;1.10;;;12.00;98.20;;;;;;4926635;29;20837;-83
2024/04/05 00:15:52;;;;;;;1.50;1.10;;;12.00;98.20;;;;;;4924313;29;20478;-83
2024/04/05 00:18:20;;;;;;;1.50;1.00;;;12.10;98.20;;;;;;4924205;29;20747;-82
2024/04/05 00:20:47;;;;;;;1.50;1.00;;;12.00;98.20;;;;;;4929416;28;20479;-79
2024/04/05 00:23:13;;;;;;;1.50;1.00;;;12.00;98.20;;;;;;4937938;29;20476;-81
2024/04/05 00:25:41;;;;;;;1.50;1.10;;;12.00;98.20;;;;;;4934862;29;20471;-81
2024/04/05 00:28:07;;;;;;;1.50;1.00;;;12.10;98.20;;;;;;4917069;29;20488;-83
2024/04/05 00:30:35;;;;;;;1.50;1.00;;;12.10;98.20;;;;;;4936372;29;20834;-83
2024/04/05 00:33:01;;;;;;;1.50;1.10;;;12.10;98.20;;;;;;4915891;29;20235;-81
2024/04/05 00:35:29;;;;;;;1.50;1.10;;;12.10;98.20;;;;;;4934501;29;20475;-81
2024/04/05 00:37:55;;;;;;;1.50;1.10;;;12.10;98.20;;;;;;4927328;28;20495;-82
2024/04/05 00:40:22;;;;;;;2.57;2.23;;;12.10;98.20;;;;;;4935003;29;20794;-81
2024/04/05 00:42:49;;;;;;;1.50;1.17;;;12.10;98.20;;;;;;4927445;28;21001;-81
2024/04/05 00:45:16;;;;;;;1.50;1.00;;;12.00;98.20;;;;;;4934492;29;20511;-81
2024/04/05 00:47:42;;;;;;;1.50;1.00;;;12.10;98.20;;;;;;4915746;29;20526;-82
2024/04/05 00:50:09;;;;;;;1.50;1.00;;;12.10;98.20;;;;;;4935204;29;20467;-80
2024/04/05 00:52:36;;;;;;;1.50;1.10;;;12.10;98.20;;;;;;4925616;28;20260;-80
2024/04/05 00:55:03;;;;;;;1.50;1.00;;;12.10;98.20;;;;;;4933596;29;20887;-81
2024/04/05 00:57:30;;;;;;;1.50;1.00;;;12.10;98.20;;;;;;4924935;28;20492;-81
2024/04/05 00:59:56;;;;;;;1.50;1.10;;;12.10;98.20;;;;;;4935609;29;20492;-81
2024/04/05 01:02:23;;;;;;;1.50;1.10;;;12.10;98.20;;;;;;4920318;29;20938;-81
2024/04/05 01:04:49;;;;;;;1.50;1.00;;;12.20;98.20;;;;;;4934526;29;20925;-81
2024/04/05 01:07:16;;;;;;;1.50;1.00;;;12.20;98.20;;;;;;4926936;28;20483;-81
2024/04/05 01:09:43;;;;;;;1.50;1.10;;;12.10;98.20;;;;;;4934378;29;20211;-80
2024/04/05 01:12:10;;;;;;;1.50;1.10;;;12.20;98.20;;;;;;4925930;28;20487;-81
2024/04/05 01:14:36;;;;;;;1.50;1.10;;;12.20;98.20;;;;;;4934660;29;20622;-81
2024/04/05 01:17:02;;;;;;;1.50;1.00;;;12.20;98.20;;;;;;4916598;29;21052;-81
2024/04/05 01:19:30;;;;;;;1.50;1.00;;;12.20;98.20;;;;;;4930127;29;20207;-81
2024/04/05 01:21:58;;;;;;;1.50;1.10;;;12.20;98.20;;;;;;4914580;29;20493;-80
2024/04/05 01:24:25;;;;;;;1.50;1.00;;;12.20;98.20;;;;;;4929677;29;20479;-80
2024/04/05 01:26:52;;;;;;;1.50;1.00;;;12.20;98.20;;;;;;4918552;29;20495;-82
2024/04/05 01:29:18;;;;;;;1.50;1.03;;;12.20;98.20;;;;;;4930003;29;20476;-80
2024/04/05 01:31:45;;;;;;;1.50;1.00;;;12.30;98.20;;;;;;4921444;29;20812;-81
2024/04/05 01:34:10;;;;;;;1.50;1.00;;;12.30;98.20;;;;;;4928890;29;20223;-81
2024/04/05 01:36:37;;;;;;;1.50;1.00;;;12.30;98.20;;;;;;4923372;28;20492;-80
2024/04/05 01:39:03;;;;;;;1.50;1.00;;;12.30;98.20;;;;;;4934928;29;20291;-82
2024/04/05 01:41:33;;;;;;;1.50;1.20;;;12.30;98.20;;;;;;4924347;28;20480;-81
2024/04/05 01:44:00;;;;;;;1.50;1.00;;;12.30;98.20;;;;;;4931097;29;20467;-81
2024/04/05 01:46:26;;;;;;;1.50;1.10;;;12.30;98.20;;;;;;4916785;29;20484;-81
2024/04/05 01:48:52;;;;;;;1.50;1.00;;;12.30;98.20;;;;;;4927196;29;20472;-82
2024/04/05 01:51:19;;;;;;;1.50;1.10;;;12.30;98.20;;;;;;4924441;28;20485;-82
2024/04/05 01:53:44;;;;;;;1.50;1.00;;;12.40;98.20;;;;;;4934514;29;20208;-81
2024/04/05 01:56:11;;;;;;;1.50;1.03;;;12.40;98.20;;;;;;4922096;28;20531;-81
2024/04/05 01:58:38;;;;;;;1.50;1.10;;;12.40;98.20;;;;;;4924667;29;20236;-80
2024/04/05 02:01:05;;;;;;;1.50;1.00;;;12.40;98.20;;;;;;4921196;29;20543;-81
2024/04/05 02:03:31;;;;;;;1.50;1.10;;;12.40;98.20;;;;;;4932171;29;20478;-81
2024/04/05 02:05:58;;;;;;;2.13;1.93;;;12.40;98.20;;;;;;4919421;29;20476;-81
2024/04/05 02:08:23;;;;;;;1.50;1.10;;;12.40;98.20;;;;;;4932536;29;20208;-83
2024/04/05 02:10:50;;;;;;;1.50;1.00;;;12.40;98.20;;;;;;4922615;29;20460;-83
2024/04/05 02:13:16;;;;;;;1.50;1.00;;;12.40;98.20;;;;;;4935262;29;20218;-82
2024/04/05 02:15:48;;;;;;;1.50;1.03;;;12.40;98.20;;;;;;4929796;29;20562;-82
2024/04/05 02:18:14;;;;;;;3.90;2.10;;;12.40;98.20;;;;;;4904414;29;20228;-82
2024/04/05 02:20:43;;;;;;;1.60;1.10;;;12.40;98.20;;;;;;4931028;29;20488;-80
2024/04/05 02:23:09;;;;;;;1.50;1.00;;;12.50;98.20;;;;;;4922935;29;20239;-83
2024/04/05 02:25:35;;;;;;;1.50;1.00;;;12.50;98.20;;;;;;4931393;29;20903;-83
2024/04/05 02:28:01;;;;;;;1.50;1.00;;;12.50;98.20;;;;;;4926209;29;20856;-83
2024/04/05 02:30:28;;;;;;;1.53;1.10;;;12.50;98.20;;;;;;4932328;29;20562;-81
2024/04/05 02:32:55;;;;;;;1.50;1.10;;;12.50;98.20;;;;;;4928244;29;20238;-81
2024/04/05 02:35:23;;;;;;;1.50;1.00;;;12.50;98.20;;;;;;4934515;29;20476;-79
2024/04/05 02:37:48;;;;;;;1.50;1.00;;;12.60;98.20;;;;;;4929952;29;20542;-82
2024/04/05 02:40:18;;;;;;;1.50;1.10;;;12.60;98.20;;;;;;4930910;29;20483;-82
2024/04/05 02:42:44;;;;;;;1.50;1.10;;;12.60;98.20;;;;;;4925084;28;20233;-81
2024/04/05 02:45:11;;;;;;;1.50;1.00;;;12.50;98.20;;;;;;4937336;29;20477;-80
2024/04/05 02:47:37;;;;;;;1.50;1.10;;;12.50;98.20;;;;;;4930862;28;20331;-80
2024/04/05 02:50:06;;;;;;;1.50;1.10;;;12.50;98.20;;;;;;4937477;29;20495;-82
2024/04/05 02:52:32;;;;;;;1.53;1.07;;;12.50;98.20;;;;;;4928061;29;20559;-79
2024/04/05 02:54:59;;;;;;;1.50;1.07;;;12.50;98.20;;;;;;4935808;29;20475;-81
2024/04/05 02:57:25;;;;;;;1.50;1.00;;;12.40;98.20;;;;;;4929987;29;20577;-82
2024/04/05 02:59:52;;;;;;;1.50;1.00;;;12.40;98.20;;;;;;4937371;29;20549;-83
2024/04/05 03:02:18;;;;;;;1.50;1.00;;;12.40;98.20;;;;;;4925576;28;20242;-82
2024/04/05 03:04:45;;;;;;;1.50;1.00;;;12.30;98.20;;;;;;4935701;29;20468;-82
2024/04/05 03:07:12;;;;;;;1.50;1.00;;;12.30;98.20;;;;;;4928469;28;20231;-83
2024/04/05 03:09:40;;;;;;;1.50;1.00;;;12.30;98.20;;;;;;4938299;29;20486;-79
2024/04/05 03:12:06;;;;;;;1.50;1.10;;;12.30;98.20;;;;;;4923082;29;20499;-82
2024/04/05 03:14:33;;;;;;;1.50;1.00;;;12.30;98.20;;;;;;4933332;29;20483;-83
2024/04/05 03:16:59;;;;;;;1.50;1.10;;;12.30;98.20;;;;;;4929328;29;20632;-82
2024/04/05 03:19:25;;;;;;;1.50;1.10;;;12.30;98.20;;;;;;4943276;29;20479;-81
2024/04/05 03:21:51;;;;;;;1.50;1.00;;;12.30;98.20;;;;;;4928848;28;20231;-82
2024/04/05 03:24:19;;;;;;;1.50;1.00;;;12.30;98.20;;;;;;4940077;29;20473;-82
2024/04/05 03:26:45;;;;;;;1.50;1.00;;;12.30;98.20;;;;;;4926327;28;20622;-82
2024/04/05 03:29:12;;;;;;;1.50;1.00;;;12.30;98.20;;;;;;4944044;29;20472;-83
2024/04/05 03:31:38;;;;;;;1.50;1.00;;;12.40;98.20;;;;;;4927779;28;20747;-83
2024/04/05 03:34:04;;;;;;;1.50;1.10;;;12.40;98.20;;;;;;4938044;29;20567;-83
2024/04/05 03:36:30;;;;;;;1.50;1.00;;;12.50;98.20;;;;;;4923105;29;20231;-81
2024/04/05 03:39:00;;;;;;;1.50;1.00;;;12.60;98.20;;;;;;4944487;29;20479;-82
2024/04/05 03:41:28;;;;;;;1.50;1.10;;;12.60;98.20;;;;;;4924880;28;20240;-82
2024/04/05 03:43:55;;;;;;;1.50;1.10;;;12.60;98.20;;;;;;4936530;29;20470;-82
2024/04/05 03:46:22;;;;;;;1.50;1.10;;;12.70;98.20;;;;;;4926152;28;20489;-81
2024/04/05 03:48:48;;;;;;;1.50;1.10;;;12.70;98.20;;;;;;4939724;29;20464;-82
2024/04/05 03:51:14;;;;;;;1.50;1.00;;;12.70;98.20;;;;;;4928178;28;20490;-83
2024/04/05 03:53:41;;;;;;;1.50;1.10;;;12.70;98.20;;;;;;4936587;29;20476;-82
2024/04/05 03:56:07;;;;;;;1.57;1.10;;;12.70;98.20;;;;;;4923309;29;20233;-82
2024/04/05 03:58:35;;;;;;;1.50;1.00;;;12.70;98.20;;;;;;4932279;29;21053;-82
2024/04/05 04:01:01;;;;;;;1.53;1.10;;;12.60;98.20;;;;;;4922219;29;20216;-84
2024/04/05 04:03:28;;;;;;;1.50;1.00;;;12.60;98.20;;;;;;4931138;29;20484;-81
2024/04/05 04:05:54;;;;;;;1.50;1.10;;;12.70;98.20;;;;;;4921928;29;20479;-82
2024/04/05 04:08:21;;;;;;;1.50;1.00;;;12.70;98.20;;;;;;4935374;29;20491;-82
2024/04/05 04:10:47;;;;;;;1.50;1.00;;;12.70;98.20;;;;;;4925339;28;20515;-82
2024/04/05 04:13:14;;;;;;;1.50;1.00;;;12.70;98.20;;;;;;4937067;29;20491;-83
2024/04/05 04:15:41;;;;;;;1.50;1.00;;;12.70;98.20;;;;;;4930001;29;20480;-83
2024/04/05 04:18:08;;;;;;;1.50;1.00;;;12.70;98.20;;;;;;4925157;28;20506;-82
2024/04/05 04:20:34;;;;;;;1.50;1.00;;;12.70;98.20;;;;;;4930992;29;20515;-82
2024/04/05 04:23:01;;;;;;;1.50;1.00;;;12.70;98.20;;;;;;4926004;28;20487;-80
2024/04/05 04:25:27;;;;;;;1.50;1.00;;;12.70;98.20;;;;;;4935197;29;20623;-81
2024/04/05 04:27:53;;;;;;;1.50;0.90;;;12.70;98.20;;;;;;4926683;28;20485;-80
2024/04/05 04:30:19;;;;;;;1.50;1.10;;;12.70;98.20;;;;;;4905012;29;20650;-78
2024/04/05 04:32:48;;;;;;;1.50;1.00;;;12.80;98.20;;;;;;4899649;28;20490;-77
2024/04/05 04:35:13;;;;;;;1.50;1.10;;;12.80;98.20;;;;;;4901514;29;20216;-77
2024/04/05 04:37:40;;;;;;;1.50;1.00;;;12.80;98.20;;;;;;4883624;29;20939;-77
2024/04/05 04:40:11;;;;;;;1.50;1.00;;;12.80;98.20;;;;;;4894976;29;20468;-78
2024/04/05 04:42:38;;;;;;;1.50;1.00;;;12.80;98.20;;;;;;4897222;28;20591;-78
2024/04/05 04:45:05;;;;;;;1.50;0.97;;;12.80;98.20;;;;;;4926061;29;20551;-81
2024/04/05 04:47:32;;;;;;;1.50;1.10;;;12.70;98.20;;;;;;4923868;28;20487;-80
2024/04/05 04:49:59;;;;;;;1.50;1.00;;;12.70;98.20;;;;;;4926050;29;20959;-79
2024/04/05 04:52:26;;;;;;;1.50;1.10;;;12.70;98.20;;;;;;4912542;29;20497;-83
2024/04/05 04:54:53;;;;;;;1.50;1.00;;;12.60;98.20;;;;;;4924872;29;20501;-79
2024/04/05 04:57:20;;;;;;;1.50;1.00;;;12.60;98.20;;;;;;4907850;29;20484;-78
2024/04/05 04:59:46;;;;;;;1.50;1.10;;;12.60;98.20;;;;;;4925854;29;20570;-82
2024/04/05 05:02:13;;;;;;;1.50;1.00;;;12.60;98.20;;;;;;4916654;29;20497;-77
2024/04/05 05:04:38;;;;;;;1.50;1.00;;;12.60;98.20;;;;;;4928938;29;20535;-81
2024/04/05 05:07:07;;;;;;;1.50;1.00;;;12.60;98.20;;;;;;4914084;29;20580;-81
2024/04/05 05:09:33;;;;;;;1.50;1.00;;;12.50;98.20;;;;;;4920369;29;20235;-80
2024/04/05 05:12:00;;;;;;;1.50;1.00;;;12.50;98.20;;;;;;4916809;29;20859;-80
2024/04/05 05:14:27;;;;;;;1.50;1.00;;;12.50;98.20;;;;;;4927273;29;21021;-80
2024/04/05 05:16:54;;;;;;;1.50;1.00;;;12.60;98.20;;;;;;4925916;29;20569;-80
2024/04/05 05:19:20;;;;;;;1.50;1.20;;;12.60;98.20;;;;;;4927731;29;20461;-80
2024/04/05 05:21:47;;;;;;;1.50;1.00;;;12.50;98.20;;;;;;4920140;29;20918;-79
2024/04/05 05:24:14;;;;;;;1.50;1.00;;;12.60;98.20;;;;;;4936579;29;20929;-81
2024/04/05 05:26:41;;;;;;;1.50;1.00;;;12.60;98.20;;;;;;4918668;28;20487;-78
2024/04/05 05:29:07;;;;;;;1.50;1.00;;;12.60;98.20;;;;;;4928153;29;21019;-80
2024/04/05 05:31:34;;;;;;;1.50;1.10;;;12.60;98.20;;;;;;4921178;28;20487;-80
2024/04/05 05:34:00;;;;;;;1.50;1.00;;;12.70;98.20;;;;;;4931371;29;20556;-81
2024/04/05 05:36:27;;;;;;;1.50;1.10;;;12.70;98.20;;;;;;4915224;28;20484;-81
2024/04/05 05:38:53;;;;;;;1.50;1.00;;;12.70;98.20;;;;;;4927194;29;20698;-80
2024/04/05 05:41:21;;;;;;;1.50;1.00;;;12.80;98.20;;;;;;4914063;29;20520;-80
2024/04/05 05:43:47;;;;;;;1.50;1.00;;;12.90;98.20;;;;;;4924455;29;20217;-83
2024/04/05 05:46:14;;;;;;;1.50;1.00;;;12.90;98.20;;;;;;4916018;29;20464;-79
2024/04/05 05:48:40;;;;;;;1.50;1.00;;;13.00;98.20;;;;;;4931210;29;20241;-81
2024/04/05 05:51:06;;;;;;;2.80;2.60;;;13.00;98.20;;;;;;4917661;29;20960;-80
2024/04/05 05:53:32;;;;;;;1.50;1.00;;;13.00;98.20;;;;;;4920637;29;20219;-78
2024/04/05 05:55:59;;;;;;;1.50;1.00;;;13.00;98.20;;;;;;4915440;28;20562;-80
2024/04/05 05:58:26;;;;;;;1.50;1.10;;;13.00;98.20;;;;;;4934604;29;20209;-81
2024/04/05 06:00:53;;;;;;;1.50;1.10;;;13.00;98.20;;;;;;4922136;29;20554;-81
2024/04/05 06:03:19;;;;;;;1.50;1.10;;;13.00;98.20;;;;;;4935980;29;20546;-78
2024/04/05 06:05:52;;;;;;;1.50;1.10;;;13.10;98.20;;;;;;4929211;29;20478;-81
2024/04/05 06:08:18;;;;;;;1.50;1.10;;;13.10;98.20;;;;;;4927913;29;20239;-79
2024/04/05 06:10:54;;;;;;;1.50;1.00;;;13.20;98.20;;;;;;4927226;29;20478;-78
2024/04/05 06:13:20;;;;;;;1.87;1.77;;;13.20;98.20;;;;;;4929215;29;20594;-81
2024/04/05 06:15:54;;;;;;;1.53;1.00;;;13.30;98.20;;;;;;4923518;29;21004;-81
2024/04/05 06:18:20;;;;;;;1.50;1.17;;;13.40;98.20;;;;;;4933889;29;20220;-79
2024/04/05 06:20:52;;;;;;;1.50;1.00;;;13.50;98.20;;;;;;4930854;29;20493;-81
2024/04/05 06:23:18;;;;;;;2.37;2.17;;;13.70;98.20;;;;;;4935370;29;21589;-81
2024/04/05 06:25:52;;;;;;;1.50;1.00;;;13.90;98.20;;;;;;4931769;29;20467;-81
2024/04/05 06:28:18;;;;;;;1.60;1.20;;;14.10;98.20;;;;;;4907136;29;20600;-81
2024/04/05 06:30:45;;;;;;;1.50;0.90;;;14.20;98.20;;;;;;4930374;29;20476;-80
2024/04/05 06:33:12;;;;;;;1.50;1.00;;;14.30;98.20;;;;;;4922290;28;20514;-81
2024/04/05 06:35:39;;;;;;;1.57;1.10;;;14.40;98.20;;;;;;4929273;29;20489;-81
2024/04/05 06:38:05;;;;;;;1.50;1.10;;;14.40;98.20;;;;;;4926035;28;20638;-81
2024/04/05 06:40:32;;;;;;;1.60;1.00;;;14.40;98.20;;;;;;4928087;29;20472;-81
2024/04/05 06:42:57;;;;;;;1.50;1.10;;;14.40;98.20;;;;;;4923042;29;20239;-82
2024/04/05 06:45:24;;;;;;;1.53;1.00;;;14.40;98.20;;;;;;4928943;29;20853;-80
2024/04/05 06:47:50;;;;;;;1.53;1.00;;;14.50;98.20;;;;;;4927140;28;20242;-80
2024/04/05 06:50:18;;;;;;;1.57;1.10;;;14.50;98.20;;;;;;4929506;29;20476;-80
2024/04/05 06:52:44;;;;;;;1.60;1.33;;;14.50;98.20;;;;;;4926251;28;20246;-80
2024/04/05 06:55:11;;;;;;;1.53;1.00;;;14.60;98.20;;;;;;4926913;29;20479;-82
2024/04/05 06:57:38;;;;;;;1.60;1.20;;;14.60;98.20;;;;;;4928775;28;20256;-81
2024/04/05 07:00:07;;;;;;;1.50;1.00;;;14.60;98.20;;;;;;4933353;29;20471;-78
2024/04/05 07:02:33;;;;;;;1.57;1.03;;;14.60;98.20;;;;;;4924684;29;20491;-81
2024/04/05 07:05:01;;;;;;;1.50;1.00;;;14.60;98.20;;;;;;4925305;29;20900;-82
2024/04/05 07:07:28;;;;;;;1.60;1.20;;;14.70;98.20;;;;;;4919276;28;20766;-79
2024/04/05 07:09:55;;;;;;;1.53;1.00;;;14.70;98.20;;;;;;4930635;29;20479;-82
2024/04/05 07:12:21;;;;;;;1.50;1.00;;;14.80;98.20;;;;;;4920184;28;20494;-79
2024/04/05 07:14:48;;;;;;;1.50;1.00;;;14.80;98.20;;;;;;4929340;29;20534;-79
2024/04/05 07:17:14;;;;;;;1.50;1.00;;;14.80;98.20;;;;;;4920012;28;20570;-79
2024/04/05 07:19:41;;;;;;;1.53;1.00;;;14.70;98.20;;;;;;4930185;29;20483;-84
2024/04/05 07:22:09;;;;;;;1.50;1.00;;;14.70;98.20;;;;;;4919088;28;20623;-78
2024/04/05 07:24:37;;;;;;;1.50;1.10;;;14.80;98.20;;;;;;4930170;29;20485;-81
2024/04/05 07:27:03;;;;;;;1.50;0.90;;;14.80;98.20;;;;;;4922098;28;20565;-82
2024/04/05 07:29:30;;;;;;;1.50;1.00;;;14.80;98.20;;;;;;4933760;29;20983;-80
2024/04/05 07:31:58;;;;;;;1.50;0.90;;;14.90;98.20;;;;;;4922346;28;20562;-83
2024/04/05 07:34:25;;;;;;;1.50;1.00;;;14.90;98.20;;;;;;4932046;29;20826;-83
2024/04/05 07:36:51;;;;;;;1.50;1.00;;;14.90;98.20;;;;;;4920803;29;20505;-81
2024/04/05 07:39:18;;;;;;;1.50;1.00;;;14.90;98.20;;;;;;4931260;29;20483;-81
2024/04/05 07:41:45;;;;;;;1.50;1.00;;;15.00;98.20;;;;;;4920089;28;20711;-78
2024/04/05 07:44:12;;;;;;;1.50;1.00;;;15.00;98.20;;;;;;4929227;29;21266;-80
2024/04/05 07:46:37;;;;;;;1.53;0.90;;;15.00;98.20;;;;;;4916327;28;20537;-81
2024/04/05 07:49:04;;;;;;;1.50;1.00;;;15.10;98.20;;;;;;4927965;29;20983;-82
2024/04/05 07:51:30;;;;;;;1.60;1.07;;;15.10;98.20;;;;;;4918061;28;20247;-80
2024/04/05 07:53:57;;;;;;;1.50;1.00;;;15.20;98.20;;;;;;4931842;29;20476;-79
2024/04/05 07:56:25;;;;;;;1.53;0.90;;;15.30;98.20;;;;;;4915351;28;20251;-80
2024/04/05 07:58:54;;;;;;;1.53;1.00;;;15.30;98.20;;;;;;4930285;29;20979;-82
2024/04/05 08:01:19;;;;;;;1.57;1.00;;;15.30;98.20;;;;;;4918152;28;20556;-79
2024/04/05 08:03:46;;;;;;;1.50;0.90;;;15.30;98.20;;;;;;4935017;29;20620;-79
2024/04/05 08:06:13;;;;;;;1.50;0.90;;;15.20;98.20;;;;;;4913301;29;20235;-78
2024/04/05 08:08:40;;;;;;;1.50;0.97;;;15.10;98.20;;;;;;4930546;29;20508;-81
2024/04/05 08:11:06;;;;;;;1.53;1.00;;;15.10;98.20;;;;;;4916811;28;20244;-78
2024/04/05 08:13:33;;;;;;;1.60;1.30;;;15.00;98.20;;;;;;4932136;29;20478;-81
2024/04/05 08:16:04;;;;;;;1.50;0.90;;;15.00;98.20;;;;;;4915149;28;20216;-79
2024/04/05 08:18:31;;;;;;;1.53;1.07;;;15.00;98.20;;;;;;4932484;29;20871;-78
2024/04/05 08:20:57;;;;;;;1.50;1.00;;;15.00;98.20;;;;;;4919399;28;20503;-81
2024/04/05 08:23:24;;;;;;;1.53;0.90;;;15.00;98.20;;;;;;4934410;29;20471;-79
2024/04/05 08:25:50;;;;;;;1.50;1.00;;;15.00;98.20;;;;;;4916037;28;20283;-81
2024/04/05 08:28:18;;;;;;;1.60;1.00;;;15.00;98.20;;;;;;4929493;28;20547;-79
2024/04/05 08:30:44;;;;;;;1.50;1.00;;;15.00;98.20;;;;;;4927500;29;20471;-80
2024/04/05 08:33:12;;;;;;;1.50;0.90;;;15.00;98.20;;;;;;4917320;29;20478;-79
2024/04/05 08:35:38;;;;;;;1.50;1.00;;;15.10;98.20;;;;;;4925660;29;20584;-79
2024/04/05 08:38:06;;;;;;;1.53;0.90;;;15.10;98.20;;;;;;4920943;28;20573;-81
2024/04/05 08:40:32;;;;;;;1.50;0.90;;;15.10;98.20;;;;;;4924615;29;20989;-82
2024/04/05 08:43:01;;;;;;;3.23;3.03;;;15.20;98.20;;;;;;4920716;28;20482;-81
2024/04/05 08:45:30;;;;;;;1.50;1.00;;;15.20;98.20;;;;;;4924089;29;20502;-80
2024/04/05 08:48:01;;;;;;;1.50;1.00;;;15.30;98.20;;;;;;4922594;29;20479;-79
2024/04/05 08:50:28;;;;;;;1.50;1.00;;;15.30;98.20;;;;;;4926737;29;20478;-82
2024/04/05 08:52:56;;;;;;;1.50;1.00;;;15.30;98.20;;;;;;4924731;29;20586;-80
2024/04/05 08:55:22;;;;;;;1.50;1.00;;;15.30;98.20;;;;;;4924384;29;20495;-79
2024/04/05 08:57:50;;;;;;;1.50;1.10;;;15.40;98.20;;;;;;4924884;28;20486;-81
2024/04/05 09:00:23;;;;;;;1.53;0.97;;;15.40;98.20;;;;;;4928890;29;20559;-81
2024/04/05 09:02:52;;;;;;;1.57;1.00;;;15.50;98.20;;;;;;4922328;28;21013;-81
2024/04/05 09:05:19;;;;;;;1.53;1.00;;;15.50;98.20;;;;;;4926752;29;21012;-80
2024/04/05 09:07:47;;;;;;;1.53;1.03;;;15.60;98.20;;;;;;4923526;28;20483;-80
2024/04/05 09:10:14;;;;;;;1.50;0.90;;;15.60;98.20;;;;;;4928128;29;20504;-80
2024/04/05 09:12:49;;;;;;;1.57;0.90;;;15.70;98.20;;;;;;4923961;28;20487;-81
2024/04/05 09:15:18;;;;;;;1.50;0.90;;;15.80;98.20;;;;;;4925539;29;20514;-81
2024/04/05 09:17:48;;;;;;;1.80;1.30;;;15.90;98.20;;;;;;4924345;28;20514;-81
2024/04/05 09:20:19;;;;;;;1.50;0.90;;;16.00;98.20;;;;;;4926843;29;20474;-82
2024/04/05 09:22:48;;;;;;;1.87;1.47;;;16.20;98.20;;;;;;4919273;29;20480;-80
2024/04/05 09:25:17;;;;;;;1.50;1.00;;;16.30;98.20;;;;;;4923781;29;20553;-79
2024/04/05 09:27:44;;;;;;;1.53;1.00;;;16.50;98.20;;;;;;4916420;29;20570;-77
2024/04/05 09:30:10;;;;;;;1.57;1.00;;;16.60;98.20;;;;;;4924478;29;20481;-80
2024/04/05 09:32:37;;;;;;;1.57;0.90;;;16.70;98.20;;;;;;4916039;29;20487;-81
2024/04/05 09:35:08;;;;;;;1.50;0.93;;;16.80;98.20;;;;;;4924199;29;20715;-80
2024/04/05 09:37:35;;;;;;;1.60;1.00;;;16.70;98.20;;;;;;4917965;28;20493;-79
2024/04/05 09:40:10;;;;;;;1.50;1.00;;;16.60;98.20;;;;;;4923745;29;20564;-79
2024/04/05 09:42:39;;;;;;;1.50;0.90;;;16.60;98.20;;;;;;4919401;29;20479;-81
2024/04/05 09:45:06;;;;;;;1.50;0.90;;;16.50;98.20;;;;;;4928513;29;20547;-78
2024/04/05 09:47:33;;;;;;;1.60;1.00;;;16.50;98.20;;;;;;4919054;28;21034;-80
2024/04/05 09:49:59;;;;;;;1.53;1.00;;;16.40;98.20;;;;;;4930014;29;20463;-80
2024/04/05 09:52:35;;;;;;;1.53;0.90;;;16.40;98.20;;;;;;4923094;29;20918;-79
2024/04/05 09:55:08;;;;;;;1.60;1.10;;;16.40;98.20;;;;;;4928079;29;20482;-79
2024/04/05 09:57:36;;;;;;;1.50;0.90;;;16.40;98.20;;;;;;4918319;28;21073;-80
2024/04/05 10:00:09;;;;;;;1.50;0.97;;;16.40;98.20;;;;;;4926476;29;21060;-79
2024/04/05 10:02:37;;;;;;;1.50;1.00;;;16.40;98.20;;;;;;4921778;29;20487;-80
2024/04/05 10:05:07;;;;;;;1.97;1.77;;;16.40;98.20;;;;;;4930182;29;20472;-81
2024/04/05 10:07:34;;;;;;;1.53;1.00;;;16.50;98.20;;;;;;4924186;28;20479;-82
2024/04/05 10:10:09;;;;;;;1.50;1.00;;;16.50;98.20;;;;;;4928576;29;20470;-81
2024/04/05 10:12:36;;;;;;;1.50;0.90;;;16.50;98.20;;;;;;4919548;29;20522;-81
2024/04/05 10:15:03;;;;;;;1.50;0.90;;;16.60;98.20;;;;;;4926444;29;20467;-80
2024/04/05 10:17:30;;;;;;;1.53;0.97;;;16.70;98.20;;;;;;4918961;28;20512;-80
2024/04/05 10:20:05;;;;;;;1.50;1.00;;;16.70;98.20;;;;;;4928453;29;20885;-81
2024/04/05 10:22:32;;;;;;;1.70;1.43;;;16.80;98.20;;;;;;4921600;29;20486;-84
2024/04/05 10:24:57;;;;;;;1.50;0.90;;;16.80;98.20;;;;;;4927628;29;20495;-82
2024/04/05 10:27:27;;;;;;;2.07;1.87;;;16.80;98.20;;;;;;4919900;28;20487;-82
2024/04/05 10:29:58;;;;;;;1.50;1.00;;;16.80;98.20;;;;;;4932207;29;20750;-79
2024/04/05 10:32:25;;;;;;;1.50;0.90;;;16.90;98.20;;;;;;4916858;29;21087;-81
2024/04/05 10:35:04;;;;;;;1.53;1.00;;;16.90;98.20;;;;;;4937420;23;20533;-84
2024/04/05 10:38:46;;;;;;;;;;;;;;;;;;;;;
2024/04/05 10:41:14;;;;;;;1.50;1.00;;;16.70;98.20;;;;;;4875933;29;20489;-84
2024/04/05 10:43:43;;;;;;;1.53;0.90;;;16.70;98.20;;;;;;4919439;29;20487;-84
2024/04/05 10:46:13;;;;;;;1.50;0.90;;;16.70;98.20;;;;;;4885957;29;20496;-85
2024/04/05 10:48:40;;;;;;;1.53;1.00;;;16.80;98.20;;;;;;4905865;29;20468;-85
2024/04/05 10:51:06;;;;;;;1.50;1.00;;;16.90;98.20;;;;;;4887489;29;21072;-87
2024/04/05 10:53:33;;;;;;;1.50;0.90;;;17.00;98.20;;;;;;4905859;29;20466;-85
2024/04/05 10:56:08;;;;;;;1.50;0.90;;;17.10;98.20;;;;;;4892667;29;20485;-85
2024/04/05 10:58:40;;;;;;;1.50;0.90;;;17.20;98.20;;;;;;4897740;29;20473;-86
2024/04/05 11:01:21;;;;;;;1.50;1.00;;;17.20;98.20;;;;;;4888781;29;20481;-85
2024/04/05 11:03:55;;;;;;;1.50;0.90;;;17.30;98.20;;;;;;4902739;29;20494;-85
2024/04/05 11:06:40;;;;;;;1.50;0.90;;;17.30;98.20;;;;;;4936816;23;20486;-88
2024/04/05 11:09:14;;;;;;;1.57;0.90;;;17.30;98.20;;;;;;4922570;29;20475;-87
2024/04/05 11:11:40;;;;;;;1.50;0.90;;;17.30;98.20;;;;;;4925319;28;20848;-86
2024/04/05 11:14:13;;;;;;;1.50;1.00;;;17.30;98.20;;;;;;4941652;29;20751;-86
2024/04/05 11:16:41;;;;;;;1.50;0.90;;;17.30;98.20;;;;;;4925475;28;20491;-85
2024/04/05 11:19:08;;;;;;;1.50;0.90;;;17.30;98.20;;;;;;4936114;29;20490;-87
2024/04/05 11:22:32;;;;;;;;;;;;;;;;;;;;;
2024/04/05 11:24:59;;;;;;;1.57;0.90;;;17.30;98.20;;;;;;4928538;29;20490;-87
2024/04/05 11:27:27;;;;;;;1.50;0.90;;;17.30;98.20;;;;;;4932558;28;21021;-85
2024/04/05 11:29:54;;;;;;;1.50;1.00;;;17.30;98.20;;;;;;4931203;29;20484;-84
2024/04/05 11:32:40;;;;;;;1.50;0.90;;;17.30;98.20;;;;;;4927585;29;21093;-86
2024/04/05 11:35:08;;;;;;;1.50;0.90;;;17.30;98.20;;;;;;4930260;29;20488;-86
2024/04/05 11:37:42;;;;;;;1.50;1.00;;;17.40;98.20;;;;;;4927961;28;20510;-85
2024/04/05 11:40:10;;;;;;;1.50;1.00;;;17.40;98.20;;;;;;4933284;29;20466;-85
2024/04/05 11:43:16;;;;;;;1.50;0.90;;;17.40;98.20;;;;;;4922883;29;20546;-86
2024/04/05 11:45:34;;;;;;;1.50;0.90;;;17.50;98.20;;;;;;4930119;29;21006;-84
2024/04/05 11:48:02;;;;;;;7.93;4.63;;;17.60;98.20;;;;;;4925524;29;20569;-87
2024/04/05 11:50:30;;;;;;;1.50;0.90;;;17.60;98.20;;;;;;4931025;29;20469;-83
2024/04/05 11:52:56;;;;;;;1.50;0.90;;;17.70;98.20;;;;;;4927423;29;20476;-84
2024/04/05 11:55:25;;;;;;;1.50;0.90;;;17.80;98.20;;;;;;4937257;29;20484;-84
2024/04/05 11:58:17;;;;;;;1.53;1.00;;;17.90;98.20;;;;;;4928152;28;20498;-85
2024/04/05 12:01:14;;;;;;;;;;;;;;;;;;;;;
2024/04/05 12:07:12;;;;;;;;;;;;;;;;;;;;;
2024/04/05 12:09:53;;;;;;;1.53;1.00;;;18.20;98.20;;;;;;4900204;29;20851;-85
2024/04/05 12:12:23;;;;;;;1.50;1.00;;;18.30;98.20;;;;;;4882733;29;20860;-83
2024/04/05 12:14:49;;;;;;;1.50;0.90;;;18.30;98.20;;;;;;4895241;29;20489;-83
2024/04/05 12:17:16;;;;;;;1.50;0.90;;;18.20;98.20;;;;;;4886838;29;20481;-83
2024/04/05 12:19:47;;;;;;;1.50;1.00;;;18.10;98.20;;;;;;4899653;29;20217;-82
2024/04/05 12:22:14;;;;;;;1.50;0.90;;;18.00;98.20;;;;;;4876367;29;20480;-81
2024/04/05 12:24:40;;;;;;;1.50;0.90;;;17.80;98.20;;;;;;4896923;29;20605;-80
2024/04/05 12:27:08;;;;;;;1.50;1.00;;;17.60;98.20;;;;;;4877314;29;20490;-81
2024/04/05 12:29:34;;;;;;;1.50;1.00;;;17.30;98.20;;;;;;4893035;29;20561;-83
2024/04/05 12:32:10;;;;;;;1.53;0.97;;;17.20;98.20;;;;;;4889957;29;20501;-82
2024/04/05 12:34:58;;;;;;;1.50;0.90;;;17.00;98.20;;;;;;4897151;29;20485;-83
2024/04/05 12:37:40;;;;;;;1.57;1.00;;;17.00;98.20;;;;;;4889773;29;20526;-82
2024/04/05 12:40:35;;;;;;;1.50;1.00;;;17.00;98.20;;;;;;4900735;29;20911;-83
2024/04/05 12:43:04;;;;;;;1.50;1.00;;;17.20;98.20;;;;;;4887347;29;20511;-84
2024/04/05 12:45:39;;;;;;;1.50;0.97;;;17.40;98.20;;;;;;4897060;29;20493;-84
2024/04/05 12:48:09;;;;;;;1.50;0.90;;;17.70;98.20;;;;;;4880466;29;20485;-82
2024/04/05 12:51:21;;;;;;;1.50;0.90;;;18.00;98.20;;;;;;4900954;29;20470;-84
2024/04/05 12:54:04;;;;;;;1.50;0.90;;;18.20;98.20;;;;;;4882478;29;20588;-83
2024/04/05 12:56:33;;;;;;;1.50;0.90;;;18.60;98.20;;;;;;4882712;29;20522;-83
2024/04/05 12:59:01;;;;;;;1.50;0.90;;;18.80;98.20;;;;;;4888822;29;20466;-82
2024/04/05 13:01:27;;;;;;;1.50;0.90;;;18.90;98.20;;;;;;4882856;29;21071;-83